sensor_id;sensor_type;location;lat;lon;timestamp;temperature;humidity
23475;DHT22;11910;52.086;21.066;2022-11-04T00:01:37;7.00;98.80
23475;DHT22;11910;52.086;21.066;2022-11-04T00:04:03;7.00;98.70
23475;DHT22;11910;52.086;21.066;2022-11-04T00:06:29;7.10;98.80
23475;DHT22;11910;52.086;21.066;2022-11-04T00:08:56;7.20;98.60
23475;DHT22;11910;52.086;21.066;2022-11-04T00:11:24;7.20;98.60
23475;DHT22;11910;52.086;21.066;2022-11-04T00:14:08;7.30;98.50
23475;DHT22;11910;52.086;21.066;2022-11-04T00:16:34;7.30;98.50
23475;DHT22;11910;52.086;21.066;2022-11-04T00:19:19;7.30;98.60
23475;DHT22;11910;52.086;21.066;2022-11-04T00:21:44;7.30;98.50
23475;DHT22;11910;52.086;21.066;2022-11-04T00:24:29;7.30;98.40
23475;DHT22;11910;52.086;21.066;2022-11-04T00:27:18;7.30;98.40
23475;DHT22;11910;52.086;21.066;2022-11-04T00:30:04;7.40;98.40
23475;DHT22;11910;52.086;21.066;2022-11-04T00:32:31;7.40;98.50
23475;DHT22;11910;52.086;21.066;2022-11-04T00:35:15;7.40;98.50
23475;DHT22;11910;52.086;21.066;2022-11-04T00:37:42;7.40;98.50
23475;DHT22;11910;52.086;21.066;2022-11-04T00:40:10;7.40;98.50
23475;DHT22;11910;52.086;21.066;2022-11-04T00:42:36;7.40;98.50
23475;DHT22;11910;52.086;21.066;2022-11-04T00:45:02;7.40;98.40
23475;DHT22;11910;52.086;21.066;2022-11-04T00:47:28;7.40;98.50
23475;DHT22;11910;52.086;21.066;2022-11-04T00:49:54;7.40;98.40
23475;DHT22;11910;52.086;21.066;2022-11-04T00:52:19;7.40;98.30
23475;DHT22;11910;52.086;21.066;2022-11-04T00:54:46;7.40;98.40
23475;DHT22;11910;52.086;21.066;2022-11-04T00:57:12;7.40;98.50
23475;DHT22;11910;52.086;21.066;2022-11-04T00:59:38;7.40;98.50
23475;DHT22;11910;52.086;21.066;2022-11-04T01:02:06;7.30;98.40
23475;DHT22;11910;52.086;21.066;2022-11-04T01:04:32;7.40;98.40
23475;DHT22;11910;52.086;21.066;2022-11-04T01:06:57;7.30;98.40
23475;DHT22;11910;52.086;21.066;2022-11-04T01:09:23;7.40;98.40
23475;DHT22;11910;52.086;21.066;2022-11-04T01:11:49;7.40;98.40
23475;DHT22;11910;52.086;21.066;2022-11-04T01:14:15;7.40;98.40
23475;DHT22;11910;52.086;21.066;2022-11-04T01:16:41;7.40;98.50
23475;DHT22;11910;52.086;21.066;2022-11-04T01:19:06;7.40;98.40
23475;DHT22;11910;52.086;21.066;2022-11-04T01:21:32;7.50;98.20
23475;DHT22;11910;52.086;21.066;2022-11-04T01:23:58;7.50;98.10
23475;DHT22;11910;52.086;21.066;2022-11-04T01:26:25;7.50;98.00
23475;DHT22;11910;52.086;21.066;2022-11-04T01:28:52;7.60;98.00
23475;DHT22;11910;52.086;21.066;2022-11-04T01:31:21;7.60;97.80
23475;DHT22;11910;52.086;21.066;2022-11-04T01:33:48;7.60;97.90
23475;DHT22;11910;52.086;21.066;2022-11-04T01:36:14;7.50;97.80
23475;DHT22;11910;52.086;21.066;2022-11-04T01:38:39;7.50;97.90
23475;DHT22;11910;52.086;21.066;2022-11-04T01:41:06;7.50;97.90
23475;DHT22;11910;52.086;21.066;2022-11-04T01:46:11;7.50;97.80
23475;DHT22;11910;52.086;21.066;2022-11-04T01:48:37;7.50;98.00
23475;DHT22;11910;52.086;21.066;2022-11-04T01:51:03;7.50;98.00
23475;DHT22;11910;52.086;21.066;2022-11-04T01:53:37;7.50;98.00
23475;DHT22;11910;52.086;21.066;2022-11-04T01:56:06;7.50;98.20
23475;DHT22;11910;52.086;21.066;2022-11-04T01:58:38;7.50;98.10
23475;DHT22;11910;52.086;21.066;2022-11-04T02:01:05;7.50;98.10
23475;DHT22;11910;52.086;21.066;2022-11-04T02:03:34;7.50;98.10
23475;DHT22;11910;52.086;21.066;2022-11-04T02:11:19;7.60;98.00
23475;DHT22;11910;52.086;21.066;2022-11-04T02:14:03;7.60;98.00
23475;DHT22;11910;52.086;21.066;2022-11-04T02:16:37;7.60;98.00
23475;DHT22;11910;52.086;21.066;2022-11-04T02:22:13;7.60;98.40
23475;DHT22;11910;52.086;21.066;2022-11-04T02:35:05;7.80;97.80
23475;DHT22;11910;52.086;21.066;2022-11-04T02:40:36;7.70;97.80
23475;DHT22;11910;52.086;21.066;2022-11-04T02:43:30;7.80;97.80
23475;DHT22;11910;52.086;21.066;2022-11-04T02:46:06;7.80;97.70
23475;DHT22;11910;52.086;21.066;2022-11-04T02:51:21;8.00;97.50
23475;DHT22;11910;52.086;21.066;2022-11-04T02:53:51;8.00;97.80
23475;DHT22;11910;52.086;21.066;2022-11-04T02:56:21;8.10;97.40
23475;DHT22;11910;52.086;21.066;2022-11-04T02:59:03;8.10;97.30
23475;DHT22;11910;52.086;21.066;2022-11-04T03:01:33;8.10;97.20
23475;DHT22;11910;52.086;21.066;2022-11-04T03:04:07;8.10;97.20
23475;DHT22;11910;52.086;21.066;2022-11-04T03:06:35;8.10;97.20
23475;DHT22;11910;52.086;21.066;2022-11-04T03:09:03;8.10;97.20
23475;DHT22;11910;52.086;21.066;2022-11-04T03:11:29;8.00;97.30
23475;DHT22;11910;52.086;21.066;2022-11-04T03:16:39;8.10;97.20
23475;DHT22;11910;52.086;21.066;2022-11-04T03:19:28;8.20;97.00
23475;DHT22;11910;52.086;21.066;2022-11-04T03:22:07;8.20;97.20
23475;DHT22;11910;52.086;21.066;2022-11-04T03:24:34;8.20;97.20
23475;DHT22;11910;52.086;21.066;2022-11-04T03:29:35;8.30;97.00
23475;DHT22;11910;52.086;21.066;2022-11-04T03:34:53;8.30;96.80
23475;DHT22;11910;52.086;21.066;2022-11-04T03:37:19;8.40;96.80
23475;DHT22;11910;52.086;21.066;2022-11-04T03:39:44;8.40;96.90
23475;DHT22;11910;52.086;21.066;2022-11-04T03:42:11;8.50;96.80
23475;DHT22;11910;52.086;21.066;2022-11-04T03:44:56;8.50;96.60
23475;DHT22;11910;52.086;21.066;2022-11-04T03:47:24;8.50;96.50
23475;DHT22;11910;52.086;21.066;2022-11-04T03:49:53;8.50;96.60
23475;DHT22;11910;52.086;21.066;2022-11-04T03:52:20;8.50;96.60
23475;DHT22;11910;52.086;21.066;2022-11-04T03:54:46;8.50;97.00
23475;DHT22;11910;52.086;21.066;2022-11-04T04:05:10;8.50;96.70
23475;DHT22;11910;52.086;21.066;2022-11-04T04:07:44;8.50;96.60
23475;DHT22;11910;52.086;21.066;2022-11-04T04:13:01;8.60;96.80
23475;DHT22;11910;52.086;21.066;2022-11-04T04:15:40;8.60;96.40
23475;DHT22;11910;52.086;21.066;2022-11-04T04:18:11;8.50;96.80
23475;DHT22;11910;52.086;21.066;2022-11-04T04:20:39;8.60;96.80
23475;DHT22;11910;52.086;21.066;2022-11-04T04:23:10;8.60;96.70
23475;DHT22;11910;52.086;21.066;2022-11-04T04:25:59;8.60;96.60
23475;DHT22;11910;52.086;21.066;2022-11-04T04:28:45;8.70;97.40
23475;DHT22;11910;52.086;21.066;2022-11-04T04:31:11;8.70;97.80
23475;DHT22;11910;52.086;21.066;2022-11-04T04:33:59;8.70;97.40
23475;DHT22;11910;52.086;21.066;2022-11-04T04:36:25;8.70;97.20
23475;DHT22;11910;52.086;21.066;2022-11-04T04:38:51;8.70;97.70
23475;DHT22;11910;52.086;21.066;2022-11-04T04:41:36;8.70;97.60
23475;DHT22;11910;52.086;21.066;2022-11-04T04:44:25;8.70;97.70
23475;DHT22;11910;52.086;21.066;2022-11-04T04:47:11;8.70;97.20
23475;DHT22;11910;52.086;21.066;2022-11-04T04:52:16;8.80;97.40
23475;DHT22;11910;52.086;21.066;2022-11-04T04:54:41;8.80;97.60
23475;DHT22;11910;52.086;21.066;2022-11-04T04:57:09;8.80;97.60
23475;DHT22;11910;52.086;21.066;2022-11-04T04:59:35;8.80;97.30
23475;DHT22;11910;52.086;21.066;2022-11-04T05:02:00;8.80;97.00
23475;DHT22;11910;52.086;21.066;2022-11-04T05:04:26;8.80;96.70
23475;DHT22;11910;52.086;21.066;2022-11-04T05:06:52;8.80;97.00
23475;DHT22;11910;52.086;21.066;2022-11-04T05:09:17;8.70;97.30
23475;DHT22;11910;52.086;21.066;2022-11-04T05:11:43;8.80;97.10
23475;DHT22;11910;52.086;21.066;2022-11-04T05:14:08;8.80;97.00
23475;DHT22;11910;52.086;21.066;2022-11-04T05:16:34;8.80;96.60
23475;DHT22;11910;52.086;21.066;2022-11-04T05:19:00;8.80;96.90
23475;DHT22;11910;52.086;21.066;2022-11-04T05:21:25;8.80;97.20
23475;DHT22;11910;52.086;21.066;2022-11-04T05:23:51;8.80;97.30
23475;DHT22;11910;52.086;21.066;2022-11-04T05:26:17;8.80;97.00
23475;DHT22;11910;52.086;21.066;2022-11-04T05:28:42;8.80;97.70
23475;DHT22;11910;52.086;21.066;2022-11-04T05:31:08;8.70;97.40
23475;DHT22;11910;52.086;21.066;2022-11-04T05:33:33;8.70;97.30
23475;DHT22;11910;52.086;21.066;2022-11-04T05:36:09;8.70;97.50
23475;DHT22;11910;52.086;21.066;2022-11-04T05:38:35;8.80;97.40
23475;DHT22;11910;52.086;21.066;2022-11-04T05:41:02;8.80;97.10
23475;DHT22;11910;52.086;21.066;2022-11-04T05:43:28;8.80;97.40
23475;DHT22;11910;52.086;21.066;2022-11-04T05:45:54;8.80;97.00
23475;DHT22;11910;52.086;21.066;2022-11-04T05:48:20;8.80;97.20
23475;DHT22;11910;52.086;21.066;2022-11-04T05:50:45;8.90;96.70
23475;DHT22;11910;52.086;21.066;2022-11-04T05:53:11;8.90;96.80
23475;DHT22;11910;52.086;21.066;2022-11-04T05:55:40;8.80;96.90
23475;DHT22;11910;52.086;21.066;2022-11-04T05:58:06;8.90;96.90
23475;DHT22;11910;52.086;21.066;2022-11-04T06:00:31;8.90;96.70
23475;DHT22;11910;52.086;21.066;2022-11-04T06:02:57;8.90;96.70
23475;DHT22;11910;52.086;21.066;2022-11-04T06:05:24;9.00;97.10
23475;DHT22;11910;52.086;21.066;2022-11-04T06:07:50;8.90;97.00
23475;DHT22;11910;52.086;21.066;2022-11-04T06:10:15;8.90;97.50
23475;DHT22;11910;52.086;21.066;2022-11-04T06:12:41;8.80;97.50
23475;DHT22;11910;52.086;21.066;2022-11-04T06:15:07;8.80;97.60
23475;DHT22;11910;52.086;21.066;2022-11-04T06:17:33;8.70;97.60
23475;DHT22;11910;52.086;21.066;2022-11-04T06:19:59;8.70;97.90
23475;DHT22;11910;52.086;21.066;2022-11-04T06:22:25;8.70;97.90
23475;DHT22;11910;52.086;21.066;2022-11-04T06:24:50;8.70;97.80
23475;DHT22;11910;52.086;21.066;2022-11-04T06:27:16;8.70;97.80
23475;DHT22;11910;52.086;21.066;2022-11-04T06:29:42;8.70;97.80
23475;DHT22;11910;52.086;21.066;2022-11-04T06:32:10;8.60;97.90
23475;DHT22;11910;52.086;21.066;2022-11-04T06:34:37;8.60;98.00
23475;DHT22;11910;52.086;21.066;2022-11-04T06:37:03;8.70;97.90
23475;DHT22;11910;52.086;21.066;2022-11-04T06:39:28;8.70;97.70
23475;DHT22;11910;52.086;21.066;2022-11-04T06:41:54;8.80;97.90
23475;DHT22;11910;52.086;21.066;2022-11-04T06:44:20;8.80;97.20
23475;DHT22;11910;52.086;21.066;2022-11-04T06:46:49;8.80;97.40
23475;DHT22;11910;52.086;21.066;2022-11-04T06:49:17;8.80;97.50
23475;DHT22;11910;52.086;21.066;2022-11-04T06:51:44;8.80;96.90
23475;DHT22;11910;52.086;21.066;2022-11-04T06:54:10;8.80;97.30
23475;DHT22;11910;52.086;21.066;2022-11-04T06:56:36;8.80;97.00
23475;DHT22;11910;52.086;21.066;2022-11-04T06:59:02;8.90;97.00
23475;DHT22;11910;52.086;21.066;2022-11-04T07:01:29;8.90;96.50
23475;DHT22;11910;52.086;21.066;2022-11-04T07:03:57;9.00;96.80
23475;DHT22;11910;52.086;21.066;2022-11-04T07:06:23;9.00;96.70
23475;DHT22;11910;52.086;21.066;2022-11-04T07:08:50;9.10;96.50
23475;DHT22;11910;52.086;21.066;2022-11-04T07:11:18;9.10;96.10
23475;DHT22;11910;52.086;21.066;2022-11-04T07:13:45;9.20;96.70
23475;DHT22;11910;52.086;21.066;2022-11-04T07:16:11;9.20;96.40
23475;DHT22;11910;52.086;21.066;2022-11-04T07:18:37;9.20;96.10
23475;DHT22;11910;52.086;21.066;2022-11-04T07:21:04;9.30;96.30
23475;DHT22;11910;52.086;21.066;2022-11-04T07:23:29;9.30;96.00
23475;DHT22;11910;52.086;21.066;2022-11-04T07:25:59;9.30;96.00
23475;DHT22;11910;52.086;21.066;2022-11-04T07:28:25;9.40;95.60
23475;DHT22;11910;52.086;21.066;2022-11-04T07:30:50;9.40;95.90
23475;DHT22;11910;52.086;21.066;2022-11-04T07:33:16;9.40;95.80
23475;DHT22;11910;52.086;21.066;2022-11-04T07:35:42;9.60;95.60
23475;DHT22;11910;52.086;21.066;2022-11-04T07:38:10;9.60;95.80
23475;DHT22;11910;52.086;21.066;2022-11-04T07:40:35;9.60;95.90
23475;DHT22;11910;52.086;21.066;2022-11-04T07:43:01;9.60;95.80
23475;DHT22;11910;52.086;21.066;2022-11-04T07:45:29;9.60;95.70
23475;DHT22;11910;52.086;21.066;2022-11-04T07:47:55;9.60;95.70
23475;DHT22;11910;52.086;21.066;2022-11-04T07:50:22;9.60;95.80
23475;DHT22;11910;52.086;21.066;2022-11-04T07:52:48;9.60;95.90
23475;DHT22;11910;52.086;21.066;2022-11-04T07:55:16;9.70;95.70
23475;DHT22;11910;52.086;21.066;2022-11-04T07:57:44;9.70;95.70
23475;DHT22;11910;52.086;21.066;2022-11-04T08:00:10;9.70;95.90
23475;DHT22;11910;52.086;21.066;2022-11-04T08:02:36;9.80;95.50
23475;DHT22;11910;52.086;21.066;2022-11-04T08:05:02;9.80;95.50
23475;DHT22;11910;52.086;21.066;2022-11-04T08:07:30;9.80;95.70
23475;DHT22;11910;52.086;21.066;2022-11-04T08:09:56;9.80;95.50
23475;DHT22;11910;52.086;21.066;2022-11-04T08:12:22;9.80;95.60
23475;DHT22;11910;52.086;21.066;2022-11-04T08:14:49;9.70;95.50
23475;DHT22;11910;52.086;21.066;2022-11-04T08:17:15;9.70;95.80
23475;DHT22;11910;52.086;21.066;2022-11-04T08:19:40;9.80;95.50
23475;DHT22;11910;52.086;21.066;2022-11-04T08:22:06;9.70;95.40
23475;DHT22;11910;52.086;21.066;2022-11-04T08:24:33;9.80;95.60
23475;DHT22;11910;52.086;21.066;2022-11-04T08:26:59;9.80;95.60
23475;DHT22;11910;52.086;21.066;2022-11-04T08:29:25;9.80;95.70
23475;DHT22;11910;52.086;21.066;2022-11-04T08:31:50;9.80;95.50
23475;DHT22;11910;52.086;21.066;2022-11-04T08:34:16;9.80;95.20
23475;DHT22;11910;52.086;21.066;2022-11-04T08:36:43;9.80;95.30
23475;DHT22;11910;52.086;21.066;2022-11-04T08:39:09;9.90;95.40
23475;DHT22;11910;52.086;21.066;2022-11-04T08:41:36;9.90;95.20
23475;DHT22;11910;52.086;21.066;2022-11-04T08:44:04;9.90;95.00
23475;DHT22;11910;52.086;21.066;2022-11-04T08:46:35;10.00;95.40
23475;DHT22;11910;52.086;21.066;2022-11-04T08:49:02;10.10;95.20
23475;DHT22;11910;52.086;21.066;2022-11-04T08:51:29;10.20;95.20
23475;DHT22;11910;52.086;21.066;2022-11-04T08:53:56;10.20;95.00
23475;DHT22;11910;52.086;21.066;2022-11-04T08:56:24;10.20;94.70
23475;DHT22;11910;52.086;21.066;2022-11-04T08:59:11;10.30;95.20
23475;DHT22;11910;52.086;21.066;2022-11-04T09:01:39;10.30;94.90
23475;DHT22;11910;52.086;21.066;2022-11-04T09:04:05;10.30;94.50
23475;DHT22;11910;52.086;21.066;2022-11-04T09:06:35;10.30;94.80
23475;DHT22;11910;52.086;21.066;2022-11-04T09:09:02;10.40;94.60
23475;DHT22;11910;52.086;21.066;2022-11-04T09:11:33;10.40;94.70
23475;DHT22;11910;52.086;21.066;2022-11-04T09:14:01;10.40;94.80
23475;DHT22;11910;52.086;21.066;2022-11-04T09:16:28;10.30;94.60
23475;DHT22;11910;52.086;21.066;2022-11-04T09:18:55;10.30;94.50
23475;DHT22;11910;52.086;21.066;2022-11-04T09:21:21;10.40;95.10
23475;DHT22;11910;52.086;21.066;2022-11-04T09:23:47;10.40;94.60
23475;DHT22;11910;52.086;21.066;2022-11-04T09:26:16;10.40;94.70
23475;DHT22;11910;52.086;21.066;2022-11-04T09:28:42;10.40;94.80
23475;DHT22;11910;52.086;21.066;2022-11-04T09:31:15;10.40;94.70
23475;DHT22;11910;52.086;21.066;2022-11-04T09:33:41;10.40;94.40
23475;DHT22;11910;52.086;21.066;2022-11-04T09:36:07;10.50;94.30
23475;DHT22;11910;52.086;21.066;2022-11-04T09:38:36;10.50;94.30
23475;DHT22;11910;52.086;21.066;2022-11-04T09:46:47;10.50;94.40
23475;DHT22;11910;52.086;21.066;2022-11-04T09:49:14;10.60;94.50
23475;DHT22;11910;52.086;21.066;2022-11-04T09:51:41;10.70;94.50
23475;DHT22;11910;52.086;21.066;2022-11-04T09:54:21;10.70;94.30
23475;DHT22;11910;52.086;21.066;2022-11-04T09:56:49;10.90;94.60
23475;DHT22;11910;52.086;21.066;2022-11-04T09:59:20;11.00;94.20
23475;DHT22;11910;52.086;21.066;2022-11-04T10:01:55;11.20;94.00
23475;DHT22;11910;52.086;21.066;2022-11-04T10:04:45;11.40;93.80
23475;DHT22;11910;52.086;21.066;2022-11-04T10:10:28;11.70;93.40
23475;DHT22;11910;52.086;21.066;2022-11-04T10:13:05;11.90;92.70
23475;DHT22;11910;52.086;21.066;2022-11-04T10:16:01;12.00;92.30
23475;DHT22;11910;52.086;21.066;2022-11-04T10:18:52;12.10;92.20
23475;DHT22;11910;52.086;21.066;2022-11-04T10:24:18;12.10;92.00
23475;DHT22;11910;52.086;21.066;2022-11-04T10:27:24;12.20;92.30
23475;DHT22;11910;52.086;21.066;2022-11-04T10:30:35;12.30;91.50
23475;DHT22;11910;52.086;21.066;2022-11-04T10:32:52;12.70;91.60
23475;DHT22;11910;52.086;21.066;2022-11-04T10:35:52;13.00;91.10
23475;DHT22;11910;52.086;21.066;2022-11-04T10:40:52;14.30;87.60
23475;DHT22;11910;52.086;21.066;2022-11-04T10:43:32;14.40;86.60
23475;DHT22;11910;52.086;21.066;2022-11-04T10:48:54;14.60;84.30
23475;DHT22;11910;52.086;21.066;2022-11-04T10:51:22;15.00;84.60
23475;DHT22;11910;52.086;21.066;2022-11-04T10:53:56;15.50;84.20
23475;DHT22;11910;52.086;21.066;2022-11-04T10:56:37;16.40;80.90
23475;DHT22;11910;52.086;21.066;2022-11-04T11:01:51;17.80;77.70
23475;DHT22;11910;52.086;21.066;2022-11-04T11:06:57;17.90;76.30
23475;DHT22;11910;52.086;21.066;2022-11-04T11:09:28;17.70;74.20
23475;DHT22;11910;52.086;21.066;2022-11-04T11:12:00;17.40;73.50
23475;DHT22;11910;52.086;21.066;2022-11-04T11:16:53;17.50;74.60
23475;DHT22;11910;52.086;21.066;2022-11-04T11:19:21;18.00;73.30
23475;DHT22;11910;52.086;21.066;2022-11-04T11:21:51;18.20;72.00
23475;DHT22;11910;52.086;21.066;2022-11-04T11:24:25;18.40;70.50
23475;DHT22;11910;52.086;21.066;2022-11-04T11:26:56;18.50;70.40
23475;DHT22;11910;52.086;21.066;2022-11-04T11:29:28;18.70;70.00
23475;DHT22;11910;52.086;21.066;2022-11-04T11:31:55;19.10;69.60
23475;DHT22;11910;52.086;21.066;2022-11-04T11:34:24;19.20;68.90
23475;DHT22;11910;52.086;21.066;2022-11-04T11:36:51;19.30;66.80
23475;DHT22;11910;52.086;21.066;2022-11-04T11:39:21;19.20;67.70
23475;DHT22;11910;52.086;21.066;2022-11-04T11:41:49;19.20;67.10
23475;DHT22;11910;52.086;21.066;2022-11-04T11:44:21;19.20;67.20
23475;DHT22;11910;52.086;21.066;2022-11-04T11:46:52;19.40;66.80
23475;DHT22;11910;52.086;21.066;2022-11-04T11:49:25;19.60;65.80
23475;DHT22;11910;52.086;21.066;2022-11-04T11:51:53;19.50;67.40
23475;DHT22;11910;52.086;21.066;2022-11-04T11:56:49;19.80;65.20
23475;DHT22;11910;52.086;21.066;2022-11-04T12:02:19;20.10;65.70
23475;DHT22;11910;52.086;21.066;2022-11-04T12:04:34;20.20;63.20
23475;DHT22;11910;52.086;21.066;2022-11-04T12:09:46;20.10;63.30
23475;DHT22;11910;52.086;21.066;2022-11-04T12:22:17;19.70;63.10
23475;DHT22;11910;52.086;21.066;2022-11-04T12:24:54;20.00;63.40
23475;DHT22;11910;52.086;21.066;2022-11-04T12:30:10;20.10;62.40
23475;DHT22;11910;52.086;21.066;2022-11-04T12:40:27;19.20;63.10
23475;DHT22;11910;52.086;21.066;2022-11-04T12:47:45;18.50;66.20
23475;DHT22;11910;52.086;21.066;2022-11-04T12:50:16;18.60;65.40
23475;DHT22;11910;52.086;21.066;2022-11-04T12:55:31;17.70;67.30
23475;DHT22;11910;52.086;21.066;2022-11-04T13:00:28;16.90;70.40
23475;DHT22;11910;52.086;21.066;2022-11-04T13:03:04;16.60;71.40
23475;DHT22;11910;52.086;21.066;2022-11-04T13:08:22;16.20;71.20
23475;DHT22;11910;52.086;21.066;2022-11-04T13:10:52;15.90;72.90
23475;DHT22;11910;52.086;21.066;2022-11-04T13:13:21;15.80;73.30
23475;DHT22;11910;52.086;21.066;2022-11-04T13:15:50;15.50;73.30
23475;DHT22;11910;52.086;21.066;2022-11-04T13:18:17;15.30;74.40
23475;DHT22;11910;52.086;21.066;2022-11-04T13:20:46;15.10;75.10
23475;DHT22;11910;52.086;21.066;2022-11-04T13:23:16;14.90;75.90
23475;DHT22;11910;52.086;21.066;2022-11-04T13:25:43;14.70;76.30
23475;DHT22;11910;52.086;21.066;2022-11-04T13:28:14;14.60;77.70
23475;DHT22;11910;52.086;21.066;2022-11-04T13:35:57;14.30;77.70
23475;DHT22;11910;52.086;21.066;2022-11-04T13:38:26;14.20;78.50
23475;DHT22;11910;52.086;21.066;2022-11-04T13:41:11;14.10;78.30
23475;DHT22;11910;52.086;21.066;2022-11-04T13:43:42;13.90;78.60
23475;DHT22;11910;52.086;21.066;2022-11-04T13:46:17;13.90;79.40
23475;DHT22;11910;52.086;21.066;2022-11-04T13:48:55;13.70;79.40
23475;DHT22;11910;52.086;21.066;2022-11-04T13:51:22;13.60;80.00
23475;DHT22;11910;52.086;21.066;2022-11-04T13:53:52;13.50;80.70
23475;DHT22;11910;52.086;21.066;2022-11-04T13:56:28;13.50;80.80
23475;DHT22;11910;52.086;21.066;2022-11-04T13:58:55;13.30;81.10
23475;DHT22;11910;52.086;21.066;2022-11-04T14:06:48;13.20;81.70
23475;DHT22;11910;52.086;21.066;2022-11-04T14:14:41;13.00;82.90
23475;DHT22;11910;52.086;21.066;2022-11-04T14:22:20;12.90;84.20
23475;DHT22;11910;52.086;21.066;2022-11-04T14:24:53;12.80;84.40
23475;DHT22;11910;52.086;21.066;2022-11-04T14:27:22;12.70;84.10
23475;DHT22;11910;52.086;21.066;2022-11-04T14:29:49;12.70;85.00
23475;DHT22;11910;52.086;21.066;2022-11-04T14:32:17;12.70;84.90
23475;DHT22;11910;52.086;21.066;2022-11-04T14:34:45;12.60;85.50
23475;DHT22;11910;52.086;21.066;2022-11-04T14:39:39;12.50;85.60
23475;DHT22;11910;52.086;21.066;2022-11-04T14:42:07;12.50;86.10
23475;DHT22;11910;52.086;21.066;2022-11-04T14:51:52;12.40;86.90
23475;DHT22;11910;52.086;21.066;2022-11-04T14:54:19;12.30;87.50
23475;DHT22;11910;52.086;21.066;2022-11-04T14:56:45;12.30;87.60
23475;DHT22;11910;52.086;21.066;2022-11-04T14:59:25;12.20;87.20
23475;DHT22;11910;52.086;21.066;2022-11-04T15:01:52;12.20;88.00
23475;DHT22;11910;52.086;21.066;2022-11-04T15:04:25;12.10;88.00
23475;DHT22;11910;52.086;21.066;2022-11-04T15:06:57;12.10;88.50
23475;DHT22;11910;52.086;21.066;2022-11-04T15:09:24;12.10;88.70
23475;DHT22;11910;52.086;21.066;2022-11-04T15:11:55;12.10;88.70
23475;DHT22;11910;52.086;21.066;2022-11-04T15:14:42;12.00;88.60
23475;DHT22;11910;52.086;21.066;2022-11-04T15:17:09;12.00;88.80
23475;DHT22;11910;52.086;21.066;2022-11-04T15:19:40;12.00;88.90
23475;DHT22;11910;52.086;21.066;2022-11-04T15:22:07;12.00;89.10
23475;DHT22;11910;52.086;21.066;2022-11-04T15:24:36;12.00;89.60
23475;DHT22;11910;52.086;21.066;2022-11-04T15:27:05;12.00;89.60
23475;DHT22;11910;52.086;21.066;2022-11-04T15:29:30;11.90;89.60
23475;DHT22;11910;52.086;21.066;2022-11-04T15:31:57;12.00;89.90
23475;DHT22;11910;52.086;21.066;2022-11-04T15:34:26;12.00;90.10
23475;DHT22;11910;52.086;21.066;2022-11-04T15:36:55;11.90;90.10
23475;DHT22;11910;52.086;21.066;2022-11-04T15:39:25;11.90;90.10
23475;DHT22;11910;52.086;21.066;2022-11-04T15:41:53;11.90;90.00
23475;DHT22;11910;52.086;21.066;2022-11-04T15:44:43;11.90;90.10
23475;DHT22;11910;52.086;21.066;2022-11-04T15:49:43;11.90;90.10
23475;DHT22;11910;52.086;21.066;2022-11-04T15:54:47;11.90;90.20
23475;DHT22;11910;52.086;21.066;2022-11-04T15:57:37;11.90;90.30
23475;DHT22;11910;52.086;21.066;2022-11-04T16:00:18;11.80;90.20
23475;DHT22;11910;52.086;21.066;2022-11-04T16:07:41;11.80;90.60
23475;DHT22;11910;52.086;21.066;2022-11-04T16:12:49;11.80;90.50
23475;DHT22;11910;52.086;21.066;2022-11-04T16:15:30;11.70;90.80
23475;DHT22;11910;52.086;21.066;2022-11-04T16:17:56;11.70;90.90
23475;DHT22;11910;52.086;21.066;2022-11-04T16:20:21;11.70;91.00
23475;DHT22;11910;52.086;21.066;2022-11-04T16:22:53;11.70;90.90
23475;DHT22;11910;52.086;21.066;2022-11-04T16:25:19;11.70;91.00
23475;DHT22;11910;52.086;21.066;2022-11-04T16:27:45;11.60;91.10
23475;DHT22;11910;52.086;21.066;2022-11-04T16:30:15;11.70;91.20
23475;DHT22;11910;52.086;21.066;2022-11-04T16:32:43;11.70;91.20
23475;DHT22;11910;52.086;21.066;2022-11-04T16:38:07;11.60;91.40
23475;DHT22;11910;52.086;21.066;2022-11-04T16:40:33;11.60;91.40
23475;DHT22;11910;52.086;21.066;2022-11-04T16:42:59;11.60;91.50
23475;DHT22;11910;52.086;21.066;2022-11-04T16:45:26;11.60;91.70
23475;DHT22;11910;52.086;21.066;2022-11-04T16:47:54;11.60;91.60
23475;DHT22;11910;52.086;21.066;2022-11-04T16:50:20;11.50;91.60
23475;DHT22;11910;52.086;21.066;2022-11-04T16:52:45;11.50;91.70
23475;DHT22;11910;52.086;21.066;2022-11-04T16:55:12;11.50;91.70
23475;DHT22;11910;52.086;21.066;2022-11-04T16:57:38;11.50;91.70
23475;DHT22;11910;52.086;21.066;2022-11-04T17:00:03;11.40;91.90
23475;DHT22;11910;52.086;21.066;2022-11-04T17:02:32;11.40;91.80
23475;DHT22;11910;52.086;21.066;2022-11-04T17:05:05;11.40;91.80
23475;DHT22;11910;52.086;21.066;2022-11-04T17:07:32;11.40;92.10
23475;DHT22;11910;52.086;21.066;2022-11-04T17:09:58;11.40;91.80
23475;DHT22;11910;52.086;21.066;2022-11-04T17:12:23;11.40;91.90
23475;DHT22;11910;52.086;21.066;2022-11-04T17:14:49;11.40;91.90
23475;DHT22;11910;52.086;21.066;2022-11-04T17:17:14;11.40;92.10
23475;DHT22;11910;52.086;21.066;2022-11-04T17:19:41;11.40;92.10
23475;DHT22;11910;52.086;21.066;2022-11-04T17:22:06;11.40;91.90
23475;DHT22;11910;52.086;21.066;2022-11-04T17:24:33;11.40;92.10
23475;DHT22;11910;52.086;21.066;2022-11-04T17:26:59;11.40;92.00
23475;DHT22;11910;52.086;21.066;2022-11-04T17:29:24;11.40;92.00
23475;DHT22;11910;52.086;21.066;2022-11-04T17:31:50;11.40;92.10
23475;DHT22;11910;52.086;21.066;2022-11-04T17:34:17;11.40;92.00
23475;DHT22;11910;52.086;21.066;2022-11-04T17:36:42;11.40;92.00
23475;DHT22;11910;52.086;21.066;2022-11-04T17:39:08;11.30;91.90
23475;DHT22;11910;52.086;21.066;2022-11-04T17:41:33;11.40;92.10
23475;DHT22;11910;52.086;21.066;2022-11-04T17:44:17;11.30;92.10
23475;DHT22;11910;52.086;21.066;2022-11-04T17:46:43;11.30;92.20
23475;DHT22;11910;52.086;21.066;2022-11-04T17:49:19;11.40;92.00
23475;DHT22;11910;52.086;21.066;2022-11-04T17:51:46;11.30;92.00
23475;DHT22;11910;52.086;21.066;2022-11-04T17:54:12;11.30;92.30
23475;DHT22;11910;52.086;21.066;2022-11-04T17:56:38;11.30;92.20
23475;DHT22;11910;52.086;21.066;2022-11-04T17:59:04;11.30;92.20
23475;DHT22;11910;52.086;21.066;2022-11-04T18:01:30;11.30;92.20
23475;DHT22;11910;52.086;21.066;2022-11-04T18:03:56;11.30;92.30
23475;DHT22;11910;52.086;21.066;2022-11-04T18:06:23;11.30;92.40
23475;DHT22;11910;52.086;21.066;2022-11-04T18:08:52;11.20;92.40
23475;DHT22;11910;52.086;21.066;2022-11-04T18:11:18;11.30;92.30
23475;DHT22;11910;52.086;21.066;2022-11-04T18:14:03;11.30;92.40
23475;DHT22;11910;52.086;21.066;2022-11-04T18:16:28;11.30;92.50
23475;DHT22;11910;52.086;21.066;2022-11-04T18:18:55;11.30;92.50